ACH2055 FACT-FKKD
Flight info
| Callsign | ACH2055 |
|---|---|
| Flight time | 5h 36m |
| Altitude | 31000 |
| Route | KODES UN186 ATUPI UM436 ANVAG R987 ARGOL UN187 VNA UR526 LIKAD UY339 MESIN UG861 ARASI UH455 ETNOM ETNOM1D |
| Aircraft | B738/M-SDE2E3FGHIRWXY/LB1 |
Departure
| Time | 2026-04-17 05:09 |
|---|---|
| Airport | Cape Town International Airport (FACT) |
Arrival
| Time | 2026-04-17 10:45 |
|---|---|
| Airport | Douala International Airport (FKKD) |
| Time | Latitude | Longitude | Altitude | Speed | Heading |
|---|---|---|---|---|---|
| 2026-04-17 05:05 | -33.98248 | 18.60252 | 163 ft | 0 kts | 69° |
| 2026-04-17 05:05 | -33.98244 | 18.60263 | 163 ft | 5 kts | 70° |
| 2026-04-17 05:06 | -33.98225 | 18.60324 | 163 ft | 10 kts | 69° |
| 2026-04-17 05:06 | -33.98224 | 18.60400 | 163 ft | 10 kts | 132° |
| 2026-04-17 05:06 | -33.98291 | 18.60438 | 163 ft | 12 kts | 161° |
| 2026-04-17 05:06 | -33.98375 | 18.60474 | 163 ft | 13 kts | 160° |
| 2026-04-17 05:07 | -33.98458 | 18.60510 | 163 ft | 12 kts | 160° |
| 2026-04-17 05:07 | -33.98538 | 18.60544 | 163 ft | 12 kts | 160° |
| 2026-04-17 05:07 | -33.98620 | 18.60580 | 163 ft | 14 kts | 160° |
| 2026-04-17 05:07 | -33.98723 | 18.60624 | 162 ft | 17 kts | 160° |
| 2026-04-17 05:08 | -33.98790 | 18.60721 | 158 ft | 18 kts | 81° |
| 2026-04-17 05:08 | -33.98731 | 18.60853 | 155 ft | 19 kts | 18° |
| 2026-04-17 05:08 | -33.98504 | 18.60799 | 151 ft | 68 kts | 345° |
| 2026-04-17 05:08 | -33.97812 | 18.60581 | 155 ft | 133 kts | 346° |
| 2026-04-17 05:09 | -33.96852 | 18.60268 | 584 ft | 150 kts | 346° |
| 2026-04-17 05:09 | -33.95835 | 18.60126 | 1214 ft | 155 kts | 10° |
| 2026-04-17 05:09 | -33.94988 | 18.60929 | 1963 ft | 157 kts | 40° |
| 2026-04-17 05:09 | -33.94184 | 18.61714 | 2498 ft | 151 kts | 13° |
| 2026-04-17 05:10 | -33.93143 | 18.61728 | 2802 ft | 156 kts | 352° |
| 2026-04-17 05:10 | -33.91966 | 18.61684 | 2930 ft | 183 kts | 355° |
| 2026-04-17 05:10 | -33.90609 | 18.61707 | 3127 ft | 205 kts | 358° |
| 2026-04-17 05:10 | -33.89133 | 18.61787 | 3386 ft | 220 kts | 359° |
| 2026-04-17 05:11 | -33.87533 | 18.61922 | 3642 ft | 238 kts | 1° |
| 2026-04-17 05:11 | -33.85848 | 18.62111 | 4156 ft | 247 kts | 2° |
| 2026-04-17 05:11 | -33.84123 | 18.62343 | 4829 ft | 251 kts | 2° |
| 2026-04-17 05:11 | -33.82369 | 18.62607 | 5603 ft | 256 kts | 3° |
| 2026-04-17 05:12 | -33.80602 | 18.62896 | 6429 ft | 261 kts | 4° |
| 2026-04-17 05:12 | -33.78768 | 18.63210 | 7130 ft | 268 kts | 4° |
| 2026-04-17 05:12 | -33.76918 | 18.63543 | 7983 ft | 270 kts | 4° |
| 2026-04-17 05:12 | -33.75047 | 18.63887 | 8822 ft | 273 kts | 4° |
| 2026-04-17 05:13 | -33.73151 | 18.64243 | 9652 ft | 277 kts | 4° |
| 2026-04-17 05:13 | -33.71219 | 18.64608 | 10273 ft | 288 kts | 4° |
| 2026-04-17 05:13 | -33.69176 | 18.64992 | 10467 ft | 312 kts | 4° |
| 2026-04-17 05:13 | -33.66943 | 18.65415 | 10653 ft | 336 kts | 5° |
| 2026-04-17 05:14 | -33.64570 | 18.65870 | 11002 ft | 351 kts | 5° |
| 2026-04-17 05:14 | -33.62127 | 18.66347 | 11679 ft | 356 kts | 5° |
| 2026-04-17 05:14 | -33.59700 | 18.66824 | 12498 ft | 356 kts | 5° |
| 2026-04-17 05:14 | -33.57272 | 18.67301 | 13311 ft | 357 kts | 5° |
| 2026-04-17 05:15 | -33.54805 | 18.67783 | 13998 ft | 359 kts | 4° |
| 2026-04-17 05:15 | -33.52324 | 18.68266 | 14637 ft | 362 kts | 4° |
| 2026-04-17 05:15 | -33.49816 | 18.68753 | 15291 ft | 365 kts | 4° |
| 2026-04-17 05:15 | -33.47327 | 18.69236 | 15921 ft | 368 kts | 4° |
| 2026-04-17 05:16 | -33.44791 | 18.69727 | 16559 ft | 371 kts | 4° |
| 2026-04-17 05:16 | -33.42228 | 18.70224 | 17166 ft | 374 kts | 4° |
| 2026-04-17 05:16 | -33.39648 | 18.70723 | 17786 ft | 377 kts | 3° |
| 2026-04-17 05:16 | -33.37051 | 18.71226 | 18363 ft | 379 kts | 3° |
| 2026-04-17 05:17 | -33.34435 | 18.71732 | 18930 ft | 381 kts | 3° |
| 2026-04-17 05:17 | -33.31801 | 18.72241 | 19476 ft | 383 kts | 2° |
| 2026-04-17 05:17 | -33.29155 | 18.72752 | 20004 ft | 386 kts | 2° |
| 2026-04-17 05:17 | -33.26536 | 18.73258 | 20521 ft | 387 kts | 2° |
| 2026-04-17 05:18 | -33.23860 | 18.73775 | 21019 ft | 390 kts | 2° |
| 2026-04-17 05:18 | -33.21175 | 18.74293 | 21512 ft | 392 kts | 1° |
| 2026-04-17 05:18 | -33.18467 | 18.74815 | 22040 ft | 393 kts | 1° |
| 2026-04-17 05:18 | -33.15751 | 18.75285 | 22502 ft | 392 kts | 357° |
| 2026-04-17 05:19 | -33.13040 | 18.75340 | 22960 ft | 387 kts | 349° |
| 2026-04-17 05:19 | -33.10417 | 18.74930 | 23424 ft | 384 kts | 344° |
| 2026-04-17 05:19 | -33.07773 | 18.74412 | 23838 ft | 385 kts | 344° |
| 2026-04-17 05:19 | -33.05121 | 18.73900 | 24247 ft | 386 kts | 344° |
| 2026-04-17 05:20 | -33.02461 | 18.73394 | 24643 ft | 386 kts | 344° |
| 2026-04-17 05:20 | -32.99799 | 18.72892 | 25031 ft | 388 kts | 344° |
| 2026-04-17 05:20 | -32.97125 | 18.72392 | 25416 ft | 389 kts | 344° |
| 2026-04-17 05:20 | -32.94476 | 18.71898 | 25787 ft | 390 kts | 344° |
| 2026-04-17 05:21 | -32.91783 | 18.71398 | 26138 ft | 391 kts | 344° |
| 2026-04-17 05:21 | -32.89086 | 18.70901 | 26488 ft | 392 kts | 344° |
| 2026-04-17 05:21 | -32.86375 | 18.70402 | 26845 ft | 393 kts | 344° |
| 2026-04-17 05:21 | -32.83666 | 18.69900 | 27186 ft | 394 kts | 344° |
| 2026-04-17 05:22 | -32.80981 | 18.69402 | 27521 ft | 395 kts | 344° |
| 2026-04-17 05:22 | -32.78251 | 18.68896 | 27778 ft | 397 kts | 343° |
| 2026-04-17 05:22 | -32.75511 | 18.68388 | 28031 ft | 400 kts | 343° |
| 2026-04-17 05:22 | -32.72751 | 18.67877 | 28362 ft | 400 kts | 343° |
| 2026-04-17 05:23 | -32.70010 | 18.67374 | 28914 ft | 397 kts | 343° |
| 2026-04-17 05:23 | -32.67296 | 18.66878 | 29500 ft | 392 kts | 343° |
| 2026-04-17 05:23 | -32.64610 | 18.66387 | 29967 ft | 389 kts | 343° |
| 2026-04-17 05:23 | -32.61964 | 18.65899 | 30289 ft | 389 kts | 343° |
| 2026-04-17 05:24 | -32.59288 | 18.65406 | 30587 ft | 389 kts | 343° |
| 2026-04-17 05:24 | -32.56612 | 18.64913 | 30925 ft | 388 kts | 343° |
| 2026-04-17 05:24 | -32.53949 | 18.64424 | 31273 ft | 386 kts | 343° |
| 2026-04-17 05:24 | -32.51296 | 18.63937 | 31605 ft | 385 kts | 343° |
| 2026-04-17 05:25 | -32.48647 | 18.63450 | 31918 ft | 385 kts | 343° |
| 2026-04-17 05:25 | -32.46000 | 18.62964 | 32271 ft | 383 kts | 343° |
| 2026-04-17 05:25 | -32.43396 | 18.62487 | 32615 ft | 382 kts | 343° |
| 2026-04-17 05:25 | -32.40765 | 18.62005 | 32923 ft | 381 kts | 343° |
| 2026-04-17 05:26 | -32.38144 | 18.61525 | 33238 ft | 381 kts | 343° |
| 2026-04-17 05:26 | -32.35524 | 18.61046 | 33557 ft | 380 kts | 343° |
| 2026-04-17 05:26 | -32.32915 | 18.60568 | 33876 ft | 379 kts | 343° |
| 2026-04-17 05:26 | -32.30311 | 18.60092 | 34104 ft | 379 kts | 343° |
| 2026-04-17 05:27 | -32.25958 | 18.59294 | 34319 ft | 382 kts | 343° |
| 2026-04-17 05:27 | -32.23330 | 18.58814 | 34522 ft | 382 kts | 343° |
| 2026-04-17 05:27 | -32.19844 | 18.58178 | 34803 ft | 382 kts | 343° |
| 2026-04-17 05:28 | -32.18055 | 18.57852 | 34911 ft | 384 kts | 343° |
| 2026-04-17 05:28 | -32.15437 | 18.57373 | 35024 ft | 386 kts | 343° |
| 2026-04-17 05:28 | -32.10057 | 18.56392 | 35237 ft | 391 kts | 343° |
| 2026-04-17 05:29 | -32.07406 | 18.55910 | 35428 ft | 391 kts | 343° |
| 2026-04-17 05:29 | -32.04714 | 18.55423 | 35620 ft | 391 kts | 343° |
| 2026-04-17 05:29 | -31.99317 | 18.54444 | 35859 ft | 392 kts | 343° |
| 2026-04-17 05:30 | -31.93928 | 18.53468 | 35899 ft | 392 kts | 343° |
| 2026-04-17 05:30 | -31.88536 | 18.52491 | 35909 ft | 392 kts | 343° |
| 2026-04-17 05:31 | -31.83168 | 18.51520 | 35901 ft | 392 kts | 343° |
| 2026-04-17 05:31 | -31.77766 | 18.50544 | 35866 ft | 392 kts | 343° |
| 2026-04-17 05:32 | -31.72375 | 18.49571 | 35898 ft | 392 kts | 343° |
| 2026-04-17 05:32 | -31.67000 | 18.48602 | 35907 ft | 392 kts | 343° |
| 2026-04-17 05:33 | -31.61609 | 18.47630 | 35911 ft | 392 kts | 343° |
| 2026-04-17 05:33 | -31.56204 | 18.46658 | 35913 ft | 392 kts | 343° |
| 2026-04-17 05:34 | -31.50802 | 18.45688 | 35873 ft | 393 kts | 343° |
| 2026-04-17 05:34 | -31.45394 | 18.44718 | 35912 ft | 392 kts | 343° |
| 2026-04-17 05:35 | -31.40015 | 18.43753 | 35918 ft | 393 kts | 343° |
| 2026-04-17 05:35 | -31.34584 | 18.42780 | 35933 ft | 394 kts | 343° |
| 2026-04-17 05:36 | -31.29156 | 18.41809 | 35914 ft | 395 kts | 343° |
| 2026-04-17 05:36 | -31.23753 | 18.40845 | 35911 ft | 394 kts | 343° |
| 2026-04-17 05:37 | -31.18328 | 18.39877 | 35917 ft | 394 kts | 342° |
| 2026-04-17 05:37 | -31.12899 | 18.38909 | 35926 ft | 395 kts | 343° |
| 2026-04-17 05:38 | -31.07468 | 18.37942 | 35921 ft | 395 kts | 343° |
| 2026-04-17 05:38 | -31.02055 | 18.36980 | 35926 ft | 395 kts | 343° |
| 2026-04-17 05:39 | -30.96617 | 18.36015 | 35923 ft | 394 kts | 342° |
| 2026-04-17 05:39 | -30.91179 | 18.35050 | 35932 ft | 395 kts | 342° |
| 2026-04-17 05:40 | -30.85748 | 18.34087 | 35934 ft | 395 kts | 342° |
| 2026-04-17 05:40 | -30.80301 | 18.33123 | 35942 ft | 396 kts | 342° |
| 2026-04-17 05:41 | -30.74875 | 18.32163 | 35941 ft | 396 kts | 342° |
| 2026-04-17 05:41 | -30.69424 | 18.31201 | 35940 ft | 396 kts | 342° |
| 2026-04-17 05:42 | -30.63958 | 18.30236 | 35953 ft | 397 kts | 342° |
| 2026-04-17 05:42 | -30.58471 | 18.29318 | 35956 ft | 395 kts | 340° |
| 2026-04-17 05:43 | -30.53022 | 18.28244 | 35964 ft | 398 kts | 343° |
| 2026-04-17 05:43 | -30.47530 | 18.27316 | 35895 ft | 399 kts | 342° |
| 2026-04-17 05:44 | -30.42080 | 18.26379 | 35952 ft | 398 kts | 342° |
| 2026-04-17 05:44 | -30.36592 | 18.25420 | 35961 ft | 399 kts | 342° |
| 2026-04-17 05:45 | -30.31101 | 18.24457 | 35976 ft | 399 kts | 342° |
| 2026-04-17 05:45 | -30.25627 | 18.23496 | 35976 ft | 400 kts | 342° |
| 2026-04-17 05:46 | -30.20115 | 18.22530 | 35941 ft | 400 kts | 342° |
| 2026-04-17 05:46 | -30.14610 | 18.21568 | 35979 ft | 400 kts | 342° |
| 2026-04-17 05:47 | -30.09098 | 18.20604 | 35981 ft | 401 kts | 342° |
| 2026-04-17 05:47 | -30.03608 | 18.19646 | 35989 ft | 400 kts | 342° |
| 2026-04-17 05:48 | -29.98079 | 18.18679 | 35980 ft | 402 kts | 342° |
| 2026-04-17 05:48 | -29.92528 | 18.17715 | 35982 ft | 403 kts | 342° |
| 2026-04-17 05:49 | -29.86967 | 18.16748 | 35975 ft | 404 kts | 342° |
| 2026-04-17 05:49 | -29.81443 | 18.15788 | 35982 ft | 403 kts | 342° |
| 2026-04-17 05:50 | -29.75905 | 18.14827 | 35980 ft | 403 kts | 342° |
| 2026-04-17 05:50 | -29.70357 | 18.13865 | 35980 ft | 402 kts | 342° |
| 2026-04-17 05:51 | -29.64820 | 18.12906 | 35977 ft | 402 kts | 342° |
| 2026-04-17 05:51 | -29.59278 | 18.11947 | 35978 ft | 403 kts | 342° |
| 2026-04-17 05:52 | -29.53730 | 18.10988 | 35988 ft | 404 kts | 342° |
| 2026-04-17 05:52 | -29.48207 | 18.10034 | 35983 ft | 404 kts | 342° |
| 2026-04-17 05:53 | -29.42641 | 18.09074 | 35980 ft | 405 kts | 342° |
| 2026-04-17 05:53 | -29.37071 | 18.08115 | 35970 ft | 405 kts | 342° |
| 2026-04-17 05:54 | -29.31485 | 18.07153 | 35982 ft | 406 kts | 342° |
| 2026-04-17 05:54 | -29.25882 | 18.06190 | 35981 ft | 408 kts | 342° |
| 2026-04-17 05:55 | -29.20255 | 18.05224 | 35985 ft | 408 kts | 341° |
| 2026-04-17 05:55 | -29.14663 | 18.04265 | 35942 ft | 409 kts | 342° |
| 2026-04-17 05:56 | -29.08990 | 18.03294 | 35968 ft | 410 kts | 342° |
| 2026-04-17 05:56 | -29.03386 | 18.02335 | 35984 ft | 411 kts | 342° |
| 2026-04-17 05:57 | -28.97724 | 18.01367 | 35992 ft | 412 kts | 342° |
| 2026-04-17 05:57 | -28.92039 | 18.00388 | 35983 ft | 412 kts | 342° |
| 2026-04-17 05:58 | -28.86342 | 17.99427 | 35914 ft | 413 kts | 342° |
| 2026-04-17 05:59 | -28.77849 | 17.97981 | 35999 ft | 412 kts | 342° |
| 2026-04-17 05:59 | -28.72184 | 17.97016 | 35975 ft | 413 kts | 342° |
| 2026-04-17 06:00 | -28.66488 | 17.96047 | 35995 ft | 414 kts | 342° |
| 2026-04-17 06:00 | -28.60805 | 17.95083 | 35959 ft | 415 kts | 342° |
| 2026-04-17 06:01 | -28.55079 | 17.94112 | 35992 ft | 416 kts | 342° |
| 2026-04-17 06:01 | -28.49337 | 17.93140 | 36000 ft | 418 kts | 342° |
| 2026-04-17 06:02 | -28.43571 | 17.92162 | 36002 ft | 419 kts | 342° |
| 2026-04-17 06:02 | -28.37794 | 17.91183 | 35998 ft | 420 kts | 342° |
| 2026-04-17 06:03 | -28.32007 | 17.90203 | 35949 ft | 421 kts | 342° |
| 2026-04-17 06:03 | -28.26216 | 17.89224 | 35986 ft | 420 kts | 342° |
| 2026-04-17 06:04 | -28.20360 | 17.88530 | 36004 ft | 426 kts | 347° |
| 2026-04-17 06:04 | -28.14427 | 17.88119 | 35996 ft | 428 kts | 347° |
| 2026-04-17 06:05 | -28.08525 | 17.87695 | 36004 ft | 428 kts | 347° |
| 2026-04-17 06:05 | -28.02574 | 17.87243 | 35976 ft | 428 kts | 347° |
| 2026-04-17 06:06 | -27.96608 | 17.86786 | 35989 ft | 429 kts | 347° |
| 2026-04-17 06:06 | -27.90635 | 17.86324 | 35993 ft | 430 kts | 347° |
| 2026-04-17 06:07 | -27.84661 | 17.85862 | 35989 ft | 430 kts | 347° |
| 2026-04-17 06:07 | -27.78673 | 17.85401 | 35988 ft | 431 kts | 347° |
| 2026-04-17 06:08 | -27.72723 | 17.84944 | 35981 ft | 431 kts | 347° |
| 2026-04-17 06:08 | -27.66710 | 17.84481 | 35984 ft | 433 kts | 347° |
| 2026-04-17 06:09 | -27.60684 | 17.84019 | 35982 ft | 434 kts | 347° |
| 2026-04-17 06:09 | -27.54682 | 17.83559 | 35971 ft | 435 kts | 347° |
| 2026-04-17 06:10 | -27.48673 | 17.82941 | 35924 ft | 431 kts | 343° |
| 2026-04-17 06:10 | -27.42759 | 17.81946 | 35963 ft | 430 kts | 342° |
| 2026-04-17 06:11 | -27.36842 | 17.80913 | 35971 ft | 430 kts | 343° |
| 2026-04-17 06:11 | -27.30911 | 17.79904 | 35970 ft | 432 kts | 343° |
| 2026-04-17 06:12 | -27.24958 | 17.78910 | 35966 ft | 432 kts | 343° |
| 2026-04-17 06:12 | -27.19005 | 17.77922 | 35963 ft | 432 kts | 343° |
| 2026-04-17 06:13 | -27.13093 | 17.76942 | 35962 ft | 432 kts | 343° |
| 2026-04-17 06:13 | -27.07140 | 17.75955 | 35953 ft | 432 kts | 343° |
| 2026-04-17 06:14 | -27.01188 | 17.74970 | 35963 ft | 432 kts | 343° |
| 2026-04-17 06:14 | -26.96242 | 17.74153 | 35981 ft | 432 kts | 342° |
| 2026-04-17 06:15 | -26.90258 | 17.73162 | 35957 ft | 431 kts | 343° |
| 2026-04-17 06:15 | -26.84359 | 17.72188 | 35963 ft | 431 kts | 343° |
| 2026-04-17 06:16 | -26.78418 | 17.71208 | 35961 ft | 432 kts | 343° |
| 2026-04-17 06:16 | -26.72463 | 17.70226 | 35954 ft | 432 kts | 343° |
| 2026-04-17 06:17 | -26.66502 | 17.69245 | 35955 ft | 433 kts | 343° |
| 2026-04-17 06:17 | -26.60540 | 17.68270 | 35946 ft | 432 kts | 343° |
| 2026-04-17 06:18 | -26.54629 | 17.67296 | 35962 ft | 433 kts | 343° |
| 2026-04-17 06:18 | -26.48640 | 17.66310 | 35961 ft | 435 kts | 343° |
| 2026-04-17 06:19 | -26.42634 | 17.65326 | 35956 ft | 436 kts | 343° |
| 2026-04-17 06:19 | -26.36652 | 17.64347 | 35953 ft | 437 kts | 343° |
| 2026-04-17 06:20 | -26.30622 | 17.63359 | 35946 ft | 437 kts | 343° |
| 2026-04-17 06:20 | -26.24581 | 17.62370 | 35947 ft | 439 kts | 343° |
| 2026-04-17 06:21 | -26.18536 | 17.61381 | 35950 ft | 439 kts | 343° |
| 2026-04-17 06:21 | -26.12479 | 17.60392 | 35948 ft | 439 kts | 343° |
| 2026-04-17 06:22 | -26.06470 | 17.59412 | 35924 ft | 439 kts | 344° |
| 2026-04-17 06:22 | -26.00426 | 17.58427 | 35944 ft | 439 kts | 344° |
| 2026-04-17 06:23 | -25.94379 | 17.57442 | 35948 ft | 439 kts | 344° |
| 2026-04-17 06:23 | -25.88342 | 17.56460 | 35949 ft | 439 kts | 344° |
| 2026-04-17 06:24 | -25.82295 | 17.55477 | 35949 ft | 439 kts | 344° |
| 2026-04-17 06:24 | -25.76260 | 17.54497 | 35926 ft | 438 kts | 344° |
| 2026-04-17 06:25 | -25.70227 | 17.53519 | 35941 ft | 438 kts | 344° |
| 2026-04-17 06:25 | -25.64189 | 17.52540 | 35958 ft | 439 kts | 344° |
| 2026-04-17 06:26 | -25.58146 | 17.51562 | 35962 ft | 439 kts | 344° |
| 2026-04-17 06:26 | -25.52126 | 17.50588 | 35950 ft | 440 kts | 344° |
| 2026-04-17 06:27 | -25.46061 | 17.49609 | 35939 ft | 439 kts | 345° |
| 2026-04-17 06:27 | -25.40005 | 17.48632 | 35946 ft | 439 kts | 345° |
| 2026-04-17 06:28 | -25.33951 | 17.47656 | 35949 ft | 440 kts | 345° |
| 2026-04-17 06:28 | -25.27887 | 17.46679 | 35959 ft | 440 kts | 345° |
| 2026-04-17 06:29 | -25.21863 | 17.45710 | 35956 ft | 440 kts | 345° |
| 2026-04-17 06:29 | -25.15814 | 17.44738 | 35951 ft | 439 kts | 345° |
| 2026-04-17 06:30 | -25.09757 | 17.43765 | 35956 ft | 439 kts | 345° |
| 2026-04-17 06:30 | -25.03711 | 17.42795 | 35961 ft | 439 kts | 345° |
| 2026-04-17 06:31 | -24.97668 | 17.41831 | 35967 ft | 439 kts | 345° |
| 2026-04-17 06:31 | -24.91622 | 17.40871 | 35966 ft | 439 kts | 345° |
| 2026-04-17 06:32 | -24.85587 | 17.39915 | 35960 ft | 438 kts | 345° |
| 2026-04-17 06:32 | -24.79587 | 17.38963 | 35963 ft | 439 kts | 345° |
| 2026-04-17 06:33 | -24.73536 | 17.38004 | 35973 ft | 440 kts | 345° |
| 2026-04-17 06:33 | -24.67466 | 17.37043 | 35969 ft | 441 kts | 345° |
| 2026-04-17 06:34 | -24.61380 | 17.36080 | 35929 ft | 442 kts | 345° |
| 2026-04-17 06:34 | -24.55291 | 17.35119 | 35956 ft | 442 kts | 345° |
| 2026-04-17 06:35 | -24.49200 | 17.34158 | 35968 ft | 442 kts | 345° |
| 2026-04-17 06:35 | -24.43113 | 17.33198 | 35965 ft | 441 kts | 345° |
| 2026-04-17 06:36 | -24.37029 | 17.32241 | 35971 ft | 441 kts | 345° |
| 2026-04-17 06:36 | -24.30963 | 17.31287 | 35969 ft | 440 kts | 345° |
| 2026-04-17 06:37 | -24.24897 | 17.30335 | 35966 ft | 439 kts | 345° |
| 2026-04-17 06:37 | -24.18879 | 17.29390 | 35965 ft | 439 kts | 345° |
| 2026-04-17 06:38 | -24.12842 | 17.28443 | 35972 ft | 438 kts | 345° |
| 2026-04-17 06:38 | -24.06795 | 17.27495 | 35966 ft | 438 kts | 345° |
| 2026-04-17 06:39 | -24.00758 | 17.26550 | 35948 ft | 438 kts | 344° |
| 2026-04-17 06:39 | -23.94731 | 17.25608 | 35966 ft | 437 kts | 344° |
| 2026-04-17 06:40 | -23.88715 | 17.24667 | 35965 ft | 436 kts | 344° |
| 2026-04-17 06:40 | -23.82740 | 17.23734 | 35969 ft | 437 kts | 344° |
| 2026-04-17 06:41 | -23.76725 | 17.22796 | 35971 ft | 436 kts | 344° |
| 2026-04-17 06:41 | -23.70703 | 17.21857 | 35951 ft | 436 kts | 344° |
| 2026-04-17 06:42 | -23.64694 | 17.20921 | 35965 ft | 436 kts | 344° |
| 2026-04-17 06:42 | -23.58696 | 17.19959 | 35968 ft | 435 kts | 343° |
| 2026-04-17 06:43 | -23.52701 | 17.18988 | 35975 ft | 435 kts | 343° |
| 2026-04-17 06:43 | -23.46755 | 17.18029 | 35979 ft | 434 kts | 343° |
| 2026-04-17 06:44 | -23.40771 | 17.17067 | 35954 ft | 434 kts | 343° |
| 2026-04-17 06:44 | -23.34815 | 17.16100 | 35974 ft | 432 kts | 343° |
| 2026-04-17 06:45 | -23.28883 | 17.15133 | 35980 ft | 430 kts | 343° |
| 2026-04-17 06:45 | -23.22970 | 17.14171 | 35983 ft | 429 kts | 343° |
| 2026-04-17 06:46 | -23.17070 | 17.13208 | 35987 ft | 427 kts | 342° |
| 2026-04-17 06:46 | -23.11283 | 17.11928 | 35953 ft | 423 kts | 339° |
| 2026-04-17 06:47 | -23.05550 | 17.10531 | 35978 ft | 421 kts | 339° |
| 2026-04-17 06:47 | -22.99827 | 17.09152 | 35996 ft | 421 kts | 339° |
| 2026-04-17 06:48 | -22.94097 | 17.07793 | 36019 ft | 421 kts | 339° |
| 2026-04-17 06:48 | -22.88363 | 17.06441 | 36054 ft | 422 kts | 339° |
| 2026-04-17 06:49 | -22.82631 | 17.05092 | 36101 ft | 422 kts | 339° |
| 2026-04-17 06:49 | -22.76922 | 17.03748 | 36131 ft | 424 kts | 339° |
| 2026-04-17 06:50 | -22.71099 | 17.02376 | 36170 ft | 431 kts | 340° |
| 2026-04-17 06:50 | -22.65220 | 17.00997 | 36174 ft | 433 kts | 340° |
| 2026-04-17 06:51 | -22.59324 | 16.99616 | 36185 ft | 433 kts | 340° |
| 2026-04-17 06:51 | -22.53440 | 16.98240 | 36170 ft | 432 kts | 340° |
| 2026-04-17 06:52 | -22.47609 | 16.96886 | 36006 ft | 430 kts | 340° |
| 2026-04-17 06:52 | -22.41780 | 16.95519 | 35994 ft | 426 kts | 339° |
| 2026-04-17 06:53 | -22.36002 | 16.94163 | 35975 ft | 422 kts | 339° |
| 2026-04-17 06:53 | -22.30287 | 16.92786 | 36022 ft | 421 kts | 339° |
| 2026-04-17 06:54 | -22.24547 | 16.91411 | 36014 ft | 423 kts | 340° |
| 2026-04-17 06:54 | -22.18774 | 16.90113 | 35991 ft | 425 kts | 340° |
| 2026-04-17 06:55 | -22.12974 | 16.88815 | 35999 ft | 425 kts | 340° |
| 2026-04-17 06:55 | -22.07169 | 16.87494 | 36009 ft | 426 kts | 340° |
| 2026-04-17 06:56 | -22.01367 | 16.86151 | 36004 ft | 427 kts | 340° |
| 2026-04-17 06:56 | -21.95548 | 16.84803 | 36011 ft | 427 kts | 340° |
| 2026-04-17 06:57 | -21.89737 | 16.83460 | 35983 ft | 427 kts | 340° |
| 2026-04-17 06:57 | -21.83924 | 16.82120 | 35997 ft | 427 kts | 340° |
| 2026-04-17 06:58 | -21.78158 | 16.80792 | 36007 ft | 426 kts | 340° |
| 2026-04-17 06:58 | -21.72359 | 16.79457 | 36003 ft | 426 kts | 340° |
| 2026-04-17 06:59 | -21.66571 | 16.78126 | 36017 ft | 425 kts | 340° |
| 2026-04-17 06:59 | -21.60781 | 16.76795 | 36010 ft | 425 kts | 340° |
| 2026-04-17 07:00 | -21.55001 | 16.75468 | 36001 ft | 424 kts | 340° |
| 2026-04-17 07:00 | -21.49218 | 16.74142 | 36009 ft | 424 kts | 340° |
| 2026-04-17 07:01 | -21.43479 | 16.72826 | 36008 ft | 424 kts | 340° |
| 2026-04-17 07:01 | -21.37705 | 16.71503 | 36014 ft | 424 kts | 340° |
| 2026-04-17 07:02 | -21.31931 | 16.70181 | 36009 ft | 424 kts | 340° |
| 2026-04-17 07:02 | -21.27125 | 16.69082 | 36008 ft | 425 kts | 340° |
| 2026-04-17 07:03 | -21.21342 | 16.67760 | 36003 ft | 425 kts | 340° |
| 2026-04-17 07:03 | -21.15548 | 16.66437 | 36005 ft | 426 kts | 340° |
| 2026-04-17 07:04 | -21.09743 | 16.65112 | 36009 ft | 426 kts | 340° |
| 2026-04-17 07:04 | -21.03933 | 16.63787 | 36013 ft | 427 kts | 340° |
| 2026-04-17 07:05 | -20.98128 | 16.62464 | 36010 ft | 427 kts | 340° |
| 2026-04-17 07:05 | -20.92311 | 16.61137 | 36001 ft | 427 kts | 340° |
| 2026-04-17 07:06 | -20.86543 | 16.59821 | 36004 ft | 427 kts | 340° |
| 2026-04-17 07:06 | -20.80726 | 16.58495 | 36011 ft | 428 kts | 340° |
| 2026-04-17 07:07 | -20.74901 | 16.57169 | 36007 ft | 428 kts | 340° |
| 2026-04-17 07:07 | -20.69069 | 16.55842 | 36010 ft | 428 kts | 340° |
| 2026-04-17 07:08 | -20.63228 | 16.54514 | 35997 ft | 428 kts | 340° |
| 2026-04-17 07:08 | -20.57398 | 16.53190 | 36007 ft | 428 kts | 340° |
| 2026-04-17 07:09 | -20.51572 | 16.51868 | 36005 ft | 429 kts | 340° |
| 2026-04-17 07:09 | -20.45769 | 16.50551 | 36005 ft | 428 kts | 341° |
| 2026-04-17 07:10 | -20.39934 | 16.49229 | 36004 ft | 428 kts | 340° |
| 2026-04-17 07:10 | -20.34107 | 16.47909 | 35969 ft | 428 kts | 341° |
| 2026-04-17 07:11 | -20.28280 | 16.46591 | 35989 ft | 427 kts | 341° |
| 2026-04-17 07:11 | -20.22458 | 16.45275 | 36010 ft | 427 kts | 341° |
| 2026-04-17 07:12 | -20.16685 | 16.43970 | 36007 ft | 427 kts | 341° |
| 2026-04-17 07:12 | -20.10873 | 16.42658 | 36006 ft | 427 kts | 341° |
| 2026-04-17 07:13 | -20.05059 | 16.41346 | 36001 ft | 427 kts | 341° |
| 2026-04-17 07:13 | -19.99254 | 16.40038 | 35993 ft | 426 kts | 341° |
| 2026-04-17 07:14 | -19.93448 | 16.38730 | 35997 ft | 426 kts | 341° |
| 2026-04-17 07:14 | -19.87639 | 16.37423 | 36005 ft | 426 kts | 341° |
| 2026-04-17 07:15 | -19.81828 | 16.36115 | 35993 ft | 427 kts | 341° |
| 2026-04-17 07:15 | -19.76007 | 16.34806 | 35999 ft | 427 kts | 341° |
| 2026-04-17 07:16 | -19.70181 | 16.33497 | 35972 ft | 428 kts | 341° |
| 2026-04-17 07:16 | -19.64346 | 16.32188 | 35986 ft | 429 kts | 341° |
| 2026-04-17 07:17 | -19.58501 | 16.30877 | 35994 ft | 430 kts | 341° |
| 2026-04-17 07:17 | -19.49707 | 16.28907 | 35992 ft | 431 kts | 341° |
| 2026-04-17 07:18 | -19.43867 | 16.27600 | 35992 ft | 432 kts | 341° |
| 2026-04-17 07:18 | -19.37985 | 16.26284 | 35973 ft | 432 kts | 341° |
| 2026-04-17 07:19 | -19.32089 | 16.24967 | 35981 ft | 432 kts | 341° |
| 2026-04-17 07:19 | -19.26195 | 16.23651 | 35983 ft | 432 kts | 341° |
| 2026-04-17 07:20 | -19.20298 | 16.22335 | 35984 ft | 432 kts | 341° |
| 2026-04-17 07:20 | -19.14401 | 16.21020 | 35979 ft | 432 kts | 341° |
| 2026-04-17 07:21 | -19.08545 | 16.19715 | 35979 ft | 432 kts | 341° |
| 2026-04-17 07:21 | -19.02653 | 16.18403 | 35975 ft | 432 kts | 341° |
| 2026-04-17 07:22 | -18.96771 | 16.17094 | 35979 ft | 432 kts | 341° |
| 2026-04-17 07:22 | -18.90886 | 16.15785 | 35981 ft | 432 kts | 341° |
| 2026-04-17 07:23 | -18.85036 | 16.14484 | 35982 ft | 432 kts | 341° |
| 2026-04-17 07:23 | -18.79147 | 16.13177 | 35978 ft | 433 kts | 341° |
| 2026-04-17 07:24 | -18.73245 | 16.11867 | 35957 ft | 433 kts | 341° |
| 2026-04-17 07:24 | -18.67345 | 16.10559 | 35972 ft | 433 kts | 341° |
| 2026-04-17 07:25 | -18.61444 | 16.09250 | 35978 ft | 434 kts | 341° |
| 2026-04-17 07:25 | -18.55520 | 16.07939 | 35976 ft | 435 kts | 341° |
| 2026-04-17 07:26 | -18.49634 | 16.06635 | 35982 ft | 435 kts | 341° |
| 2026-04-17 07:26 | -18.43711 | 16.05322 | 35980 ft | 435 kts | 341° |
| 2026-04-17 07:27 | -18.37779 | 16.04007 | 35970 ft | 436 kts | 341° |
| 2026-04-17 07:27 | -18.31835 | 16.02692 | 35977 ft | 436 kts | 341° |
| 2026-04-17 07:28 | -18.25895 | 16.01377 | 35976 ft | 436 kts | 341° |
| 2026-04-17 07:28 | -18.19944 | 16.00062 | 35975 ft | 437 kts | 341° |
| 2026-04-17 07:29 | -18.13994 | 15.98747 | 35971 ft | 437 kts | 342° |
| 2026-04-17 07:29 | -18.08029 | 15.97431 | 35973 ft | 437 kts | 342° |
| 2026-04-17 07:30 | -18.02107 | 15.96124 | 35969 ft | 438 kts | 342° |
| 2026-04-17 07:30 | -17.96132 | 15.94807 | 35968 ft | 438 kts | 342° |
| 2026-04-17 07:31 | -17.90165 | 15.93493 | 35975 ft | 438 kts | 342° |
| 2026-04-17 07:31 | -17.84189 | 15.92177 | 35980 ft | 438 kts | 342° |
| 2026-04-17 07:32 | -17.78261 | 15.90873 | 35976 ft | 438 kts | 342° |
| 2026-04-17 07:32 | -17.72256 | 15.89553 | 35976 ft | 438 kts | 342° |
| 2026-04-17 07:33 | -17.66326 | 15.88250 | 35979 ft | 438 kts | 342° |
| 2026-04-17 07:33 | -17.60355 | 15.86939 | 35984 ft | 438 kts | 342° |
| 2026-04-17 07:34 | -17.54379 | 15.85628 | 35984 ft | 439 kts | 342° |
| 2026-04-17 07:34 | -17.48397 | 15.84316 | 35982 ft | 439 kts | 342° |
| 2026-04-17 07:35 | -17.42446 | 15.83012 | 35968 ft | 439 kts | 342° |
| 2026-04-17 07:35 | -17.36482 | 15.81531 | 35987 ft | 436 kts | 338° |
| 2026-04-17 07:36 | -17.30712 | 15.79716 | 36004 ft | 435 kts | 337° |
| 2026-04-17 07:36 | -17.24913 | 15.77853 | 36037 ft | 436 kts | 337° |
| 2026-04-17 07:37 | -17.19103 | 15.76011 | 36048 ft | 436 kts | 337° |
| 2026-04-17 07:37 | -17.13286 | 15.74184 | 36076 ft | 437 kts | 337° |
| 2026-04-17 07:38 | -17.07459 | 15.72362 | 36065 ft | 437 kts | 337° |
| 2026-04-17 07:38 | -17.01628 | 15.70541 | 36077 ft | 437 kts | 337° |
| 2026-04-17 07:39 | -16.95832 | 15.68731 | 36074 ft | 438 kts | 337° |
| 2026-04-17 07:39 | -16.89995 | 15.66909 | 36059 ft | 438 kts | 337° |
| 2026-04-17 07:40 | -16.84154 | 15.65087 | 35979 ft | 438 kts | 338° |
| 2026-04-17 07:40 | -16.78309 | 15.63265 | 35958 ft | 438 kts | 338° |
| 2026-04-17 07:41 | -16.72461 | 15.61444 | 35981 ft | 439 kts | 338° |
| 2026-04-17 07:41 | -16.66607 | 15.59622 | 35984 ft | 439 kts | 338° |
| 2026-04-17 07:42 | -16.60743 | 15.57797 | 35984 ft | 440 kts | 338° |
| 2026-04-17 07:42 | -16.54878 | 15.55974 | 35983 ft | 440 kts | 338° |
| 2026-04-17 07:43 | -16.49002 | 15.54148 | 35984 ft | 440 kts | 338° |
| 2026-04-17 07:43 | -16.43155 | 15.52332 | 35971 ft | 441 kts | 338° |
| 2026-04-17 07:44 | -16.37239 | 15.50496 | 35989 ft | 441 kts | 338° |
| 2026-04-17 07:44 | -16.31385 | 15.48681 | 35989 ft | 442 kts | 338° |
| 2026-04-17 07:45 | -16.25490 | 15.46854 | 35988 ft | 442 kts | 338° |
| 2026-04-17 07:45 | -16.19585 | 15.45025 | 35988 ft | 442 kts | 338° |
| 2026-04-17 07:46 | -16.13683 | 15.43198 | 35991 ft | 442 kts | 338° |
| 2026-04-17 07:46 | -16.07786 | 15.41374 | 35986 ft | 443 kts | 338° |
| 2026-04-17 07:47 | -16.01916 | 15.39559 | 35994 ft | 443 kts | 338° |
| 2026-04-17 07:47 | -15.95996 | 15.37730 | 35994 ft | 443 kts | 338° |
| 2026-04-17 07:48 | -15.90080 | 15.35904 | 35994 ft | 443 kts | 338° |
| 2026-04-17 07:48 | -15.84158 | 15.34076 | 35995 ft | 444 kts | 338° |
| 2026-04-17 07:49 | -15.78243 | 15.32252 | 35985 ft | 444 kts | 338° |
| 2026-04-17 07:49 | -15.72321 | 15.30427 | 35998 ft | 444 kts | 338° |
| 2026-04-17 07:50 | -15.66397 | 15.28603 | 36007 ft | 444 kts | 338° |
| 2026-04-17 07:50 | -15.60511 | 15.26791 | 36002 ft | 444 kts | 338° |
| 2026-04-17 07:51 | -15.54577 | 15.24965 | 36002 ft | 445 kts | 338° |
| 2026-04-17 07:51 | -15.49634 | 15.23445 | 36002 ft | 445 kts | 338° |
| 2026-04-17 07:52 | -15.43695 | 15.21620 | 35988 ft | 445 kts | 339° |
| 2026-04-17 07:52 | -15.37744 | 15.19792 | 36011 ft | 446 kts | 339° |
| 2026-04-17 07:53 | -15.31786 | 15.17963 | 36001 ft | 447 kts | 339° |
| 2026-04-17 07:53 | -15.25825 | 15.16135 | 36013 ft | 447 kts | 339° |
| 2026-04-17 07:54 | -15.19880 | 15.14312 | 36007 ft | 448 kts | 339° |
| 2026-04-17 07:54 | -15.13902 | 15.12481 | 35996 ft | 448 kts | 339° |
| 2026-04-17 07:55 | -15.07924 | 15.10650 | 36002 ft | 448 kts | 339° |
| 2026-04-17 07:55 | -15.01937 | 15.08818 | 36007 ft | 448 kts | 339° |
| 2026-04-17 07:56 | -14.95952 | 15.06987 | 36008 ft | 448 kts | 339° |
| 2026-04-17 07:56 | -14.89971 | 15.05159 | 36002 ft | 448 kts | 339° |
| 2026-04-17 07:57 | -14.84018 | 15.03340 | 35998 ft | 448 kts | 339° |
| 2026-04-17 07:57 | -14.78026 | 15.01511 | 35998 ft | 448 kts | 339° |
| 2026-04-17 07:58 | -14.72054 | 14.99689 | 36000 ft | 448 kts | 339° |
| 2026-04-17 07:58 | -14.66081 | 14.97867 | 35998 ft | 448 kts | 339° |
| 2026-04-17 07:59 | -14.60105 | 14.96046 | 36001 ft | 447 kts | 339° |
| 2026-04-17 07:59 | -14.54133 | 14.94226 | 35998 ft | 447 kts | 339° |
| 2026-04-17 08:00 | -14.48161 | 14.92409 | 36001 ft | 447 kts | 339° |
| 2026-04-17 08:00 | -14.42181 | 14.90588 | 35994 ft | 447 kts | 339° |
| 2026-04-17 08:01 | -14.36209 | 14.88772 | 35999 ft | 448 kts | 339° |
| 2026-04-17 08:01 | -14.30262 | 14.86964 | 36000 ft | 449 kts | 339° |
| 2026-04-17 08:02 | -14.24259 | 14.85140 | 36004 ft | 450 kts | 339° |
| 2026-04-17 08:02 | -14.18249 | 14.83316 | 35999 ft | 450 kts | 339° |
| 2026-04-17 08:03 | -14.12231 | 14.81490 | 36008 ft | 451 kts | 339° |
| 2026-04-17 08:03 | -14.06196 | 14.79660 | 36002 ft | 451 kts | 339° |
| 2026-04-17 08:04 | -14.00203 | 14.77843 | 36004 ft | 452 kts | 339° |
| 2026-04-17 08:04 | -13.94160 | 14.76013 | 36004 ft | 452 kts | 339° |
| 2026-04-17 08:05 | -13.88111 | 14.74181 | 36010 ft | 453 kts | 339° |
| 2026-04-17 08:05 | -13.82066 | 14.72352 | 36006 ft | 453 kts | 340° |
| 2026-04-17 08:06 | -13.76028 | 14.70526 | 36004 ft | 452 kts | 340° |
| 2026-04-17 08:06 | -13.69992 | 14.68701 | 36006 ft | 452 kts | 340° |
| 2026-04-17 08:07 | -13.63955 | 14.66877 | 36004 ft | 452 kts | 340° |
| 2026-04-17 08:07 | -13.57929 | 14.65058 | 36000 ft | 451 kts | 340° |
| 2026-04-17 08:08 | -13.51931 | 14.63248 | 35996 ft | 451 kts | 340° |
| 2026-04-17 08:08 | -13.45901 | 14.61428 | 35990 ft | 452 kts | 340° |
| 2026-04-17 08:09 | -13.39862 | 14.59607 | 35974 ft | 452 kts | 340° |
| 2026-04-17 08:09 | -13.33825 | 14.57788 | 35963 ft | 453 kts | 340° |
| 2026-04-17 08:10 | -13.27771 | 14.55965 | 35973 ft | 453 kts | 340° |
| 2026-04-17 08:10 | -13.21724 | 14.54145 | 35965 ft | 453 kts | 340° |
| 2026-04-17 08:11 | -13.15672 | 14.52324 | 35973 ft | 453 kts | 340° |
| 2026-04-17 08:11 | -13.09623 | 14.50505 | 35963 ft | 454 kts | 340° |
| 2026-04-17 08:12 | -13.03597 | 14.48694 | 35959 ft | 454 kts | 340° |
| 2026-04-17 08:12 | -12.97532 | 14.46872 | 35955 ft | 454 kts | 340° |
| 2026-04-17 08:13 | -12.91461 | 14.45049 | 35960 ft | 454 kts | 340° |
| 2026-04-17 08:14 | -12.82366 | 14.42319 | 35957 ft | 454 kts | 340° |
| 2026-04-17 08:14 | -12.76300 | 14.40499 | 35964 ft | 454 kts | 340° |
| 2026-04-17 08:15 | -12.70230 | 14.38680 | 35963 ft | 454 kts | 341° |
| 2026-04-17 08:15 | -12.64205 | 14.36878 | 35967 ft | 454 kts | 341° |
| 2026-04-17 08:16 | -12.58140 | 14.35065 | 35948 ft | 454 kts | 341° |
| 2026-04-17 08:16 | -12.52080 | 14.33255 | 35959 ft | 453 kts | 341° |
| 2026-04-17 08:17 | -12.46017 | 14.31443 | 35955 ft | 453 kts | 341° |
| 2026-04-17 08:17 | -12.39963 | 14.29635 | 35957 ft | 453 kts | 341° |
| 2026-04-17 08:18 | -12.33947 | 14.27840 | 35958 ft | 453 kts | 341° |
| 2026-04-17 08:18 | -12.27889 | 14.26033 | 35961 ft | 453 kts | 341° |
| 2026-04-17 08:19 | -12.21829 | 14.24225 | 35954 ft | 453 kts | 341° |
| 2026-04-17 08:19 | -12.15778 | 14.22422 | 35955 ft | 453 kts | 341° |
| 2026-04-17 08:20 | -12.09719 | 14.20617 | 35936 ft | 453 kts | 341° |
| 2026-04-17 08:20 | -12.03660 | 14.18813 | 35936 ft | 454 kts | 341° |
| 2026-04-17 08:21 | -11.97593 | 14.17007 | 35942 ft | 454 kts | 341° |
| 2026-04-17 08:21 | -11.91518 | 14.15200 | 35938 ft | 455 kts | 341° |
| 2026-04-17 08:22 | -11.85443 | 14.13393 | 35933 ft | 456 kts | 341° |
| 2026-04-17 08:22 | -11.79350 | 14.11583 | 35939 ft | 456 kts | 341° |
| 2026-04-17 08:23 | -11.73255 | 14.09772 | 35935 ft | 456 kts | 341° |
| 2026-04-17 08:23 | -11.67147 | 14.07958 | 35930 ft | 456 kts | 341° |
| 2026-04-17 08:24 | -11.61074 | 14.06155 | 35922 ft | 457 kts | 341° |
| 2026-04-17 08:24 | -11.54950 | 14.04339 | 35920 ft | 458 kts | 342° |
| 2026-04-17 08:25 | -11.48821 | 14.02521 | 35926 ft | 459 kts | 341° |
| 2026-04-17 08:25 | -11.42673 | 14.00699 | 35924 ft | 460 kts | 342° |
| 2026-04-17 08:26 | -11.36523 | 13.98877 | 35919 ft | 460 kts | 342° |
| 2026-04-17 08:26 | -11.30366 | 13.97054 | 35919 ft | 461 kts | 342° |
| 2026-04-17 08:27 | -11.24205 | 13.95230 | 35920 ft | 461 kts | 342° |
| 2026-04-17 08:27 | -11.18086 | 13.93420 | 35924 ft | 460 kts | 342° |
| 2026-04-17 08:28 | -11.11927 | 13.91598 | 35914 ft | 460 kts | 342° |
| 2026-04-17 08:28 | -11.05765 | 13.89777 | 35916 ft | 460 kts | 342° |
| 2026-04-17 08:29 | -10.99615 | 13.87960 | 35914 ft | 460 kts | 342° |
| 2026-04-17 08:29 | -10.93461 | 13.86142 | 35916 ft | 460 kts | 342° |
| 2026-04-17 08:30 | -10.87324 | 13.84330 | 35911 ft | 459 kts | 342° |
| 2026-04-17 08:30 | -10.81215 | 13.82526 | 35915 ft | 459 kts | 342° |
| 2026-04-17 08:31 | -10.75074 | 13.80712 | 35919 ft | 459 kts | 342° |
| 2026-04-17 08:31 | -10.68939 | 13.78885 | 35916 ft | 459 kts | 341° |
| 2026-04-17 08:32 | -10.62801 | 13.77054 | 35903 ft | 459 kts | 342° |
| 2026-04-17 08:32 | -10.56667 | 13.75225 | 35907 ft | 460 kts | 342° |
| 2026-04-17 08:33 | -10.50527 | 13.73398 | 35910 ft | 460 kts | 342° |
| 2026-04-17 08:33 | -10.44381 | 13.71569 | 35912 ft | 460 kts | 342° |
| 2026-04-17 08:34 | -10.38229 | 13.69739 | 35908 ft | 461 kts | 342° |
| 2026-04-17 08:34 | -10.32072 | 13.67908 | 35910 ft | 461 kts | 342° |
| 2026-04-17 08:35 | -10.25908 | 13.66076 | 35906 ft | 462 kts | 342° |
| 2026-04-17 08:35 | -10.19735 | 13.64242 | 35916 ft | 462 kts | 342° |
| 2026-04-17 08:36 | -10.13598 | 13.62419 | 35911 ft | 463 kts | 342° |
| 2026-04-17 08:36 | -10.07409 | 13.60596 | 35916 ft | 463 kts | 342° |
| 2026-04-17 08:37 | -10.01209 | 13.58781 | 35912 ft | 464 kts | 342° |
| 2026-04-17 08:37 | -9.95001 | 13.56963 | 35915 ft | 464 kts | 342° |
| 2026-04-17 08:38 | -9.88795 | 13.55145 | 35911 ft | 464 kts | 342° |
| 2026-04-17 08:38 | -9.83630 | 13.53631 | 35916 ft | 464 kts | 342° |
| 2026-04-17 08:39 | -9.76405 | 13.51514 | 35912 ft | 465 kts | 342° |
| 2026-04-17 08:39 | -9.70187 | 13.49694 | 35909 ft | 465 kts | 342° |
| 2026-04-17 08:40 | -9.65022 | 13.48182 | 35910 ft | 465 kts | 342° |
| 2026-04-17 08:40 | -9.58798 | 13.46361 | 35908 ft | 465 kts | 342° |
| 2026-04-17 08:41 | -9.52579 | 13.44542 | 35902 ft | 465 kts | 342° |
| 2026-04-17 08:41 | -9.46350 | 13.42721 | 35905 ft | 465 kts | 342° |
| 2026-04-17 08:42 | -9.40167 | 13.40913 | 35906 ft | 465 kts | 342° |
| 2026-04-17 08:42 | -9.33956 | 13.39099 | 35904 ft | 465 kts | 342° |
| 2026-04-17 08:43 | -9.27747 | 13.37285 | 35899 ft | 465 kts | 342° |
| 2026-04-17 08:43 | -9.21525 | 13.35469 | 35898 ft | 465 kts | 342° |
| 2026-04-17 08:44 | -9.15273 | 13.33644 | 35897 ft | 465 kts | 342° |
| 2026-04-17 08:44 | -9.09096 | 13.31842 | 35893 ft | 465 kts | 342° |
| 2026-04-17 08:45 | -9.02875 | 13.30028 | 35888 ft | 465 kts | 342° |
| 2026-04-17 08:45 | -8.96646 | 13.28211 | 35887 ft | 465 kts | 342° |
| 2026-04-17 08:46 | -8.90422 | 13.26397 | 35882 ft | 466 kts | 342° |
| 2026-04-17 08:46 | -8.84195 | 13.24564 | 35890 ft | 466 kts | 340° |
| 2026-04-17 08:47 | -8.78166 | 13.22182 | 35877 ft | 465 kts | 335° |
| 2026-04-17 08:47 | -8.72221 | 13.19606 | 35887 ft | 465 kts | 335° |
| 2026-04-17 08:48 | -8.66259 | 13.17049 | 35892 ft | 465 kts | 336° |
| 2026-04-17 08:48 | -8.60293 | 13.14537 | 35895 ft | 465 kts | 336° |
| 2026-04-17 08:49 | -8.54356 | 13.12057 | 35894 ft | 465 kts | 336° |
| 2026-04-17 08:49 | -8.48374 | 13.09562 | 35903 ft | 465 kts | 336° |
| 2026-04-17 08:50 | -8.42386 | 13.07065 | 35896 ft | 465 kts | 336° |
| 2026-04-17 08:50 | -8.36397 | 13.04565 | 35906 ft | 465 kts | 336° |
| 2026-04-17 08:51 | -8.30414 | 13.02069 | 35908 ft | 466 kts | 336° |
| 2026-04-17 08:51 | -8.24418 | 12.99567 | 35906 ft | 466 kts | 336° |
| 2026-04-17 08:52 | -8.18418 | 12.97066 | 35907 ft | 467 kts | 336° |
| 2026-04-17 08:52 | -8.12412 | 12.94565 | 35907 ft | 467 kts | 336° |
| 2026-04-17 08:53 | -8.06405 | 12.92063 | 35905 ft | 467 kts | 336° |
| 2026-04-17 08:53 | -8.00401 | 12.89562 | 35904 ft | 467 kts | 336° |
| 2026-04-17 08:54 | -7.94393 | 12.87060 | 35905 ft | 467 kts | 336° |
| 2026-04-17 08:54 | -7.88394 | 12.84563 | 35905 ft | 467 kts | 336° |
| 2026-04-17 08:55 | -7.82435 | 12.82083 | 35902 ft | 466 kts | 336° |
| 2026-04-17 08:55 | -7.76400 | 12.79573 | 35906 ft | 466 kts | 336° |
| 2026-04-17 08:56 | -7.70440 | 12.77095 | 35903 ft | 466 kts | 336° |
| 2026-04-17 08:56 | -7.64442 | 12.74602 | 35904 ft | 466 kts | 335° |
| 2026-04-17 08:57 | -7.58441 | 12.72107 | 35906 ft | 466 kts | 335° |
| 2026-04-17 08:57 | -7.52437 | 12.69614 | 35906 ft | 467 kts | 335° |
| 2026-04-17 08:58 | -7.46433 | 12.67120 | 35901 ft | 467 kts | 335° |
| 2026-04-17 08:58 | -7.40421 | 12.64623 | 35896 ft | 467 kts | 336° |
| 2026-04-17 08:59 | -7.34409 | 12.62127 | 35903 ft | 468 kts | 336° |
| 2026-04-17 08:59 | -7.28424 | 12.59644 | 35902 ft | 468 kts | 336° |
| 2026-04-17 09:00 | -7.22392 | 12.57141 | 35899 ft | 469 kts | 336° |
| 2026-04-17 09:00 | -7.16351 | 12.54636 | 35902 ft | 469 kts | 336° |
| 2026-04-17 09:01 | -7.10307 | 12.52130 | 35902 ft | 470 kts | 336° |
| 2026-04-17 09:01 | -7.04265 | 12.49625 | 35899 ft | 470 kts | 336° |
| 2026-04-17 09:02 | -6.98209 | 12.47115 | 35900 ft | 470 kts | 336° |
| 2026-04-17 09:02 | -6.92154 | 12.44606 | 35899 ft | 471 kts | 336° |
| 2026-04-17 09:03 | -6.86082 | 12.42089 | 35900 ft | 471 kts | 336° |
| 2026-04-17 09:03 | -6.80018 | 12.39575 | 35898 ft | 471 kts | 336° |
| 2026-04-17 09:04 | -6.73960 | 12.37065 | 35895 ft | 471 kts | 336° |
| 2026-04-17 09:04 | -6.67895 | 12.34552 | 35896 ft | 471 kts | 336° |
| 2026-04-17 09:05 | -6.61863 | 12.32054 | 35897 ft | 471 kts | 336° |
| 2026-04-17 09:05 | -6.55796 | 12.29542 | 35896 ft | 472 kts | 336° |
| 2026-04-17 09:06 | -6.49716 | 12.27025 | 35899 ft | 472 kts | 336° |
| 2026-04-17 09:06 | -6.43640 | 12.24510 | 35900 ft | 472 kts | 336° |
| 2026-04-17 09:07 | -6.37558 | 12.21994 | 35899 ft | 472 kts | 336° |
| 2026-04-17 09:07 | -6.31486 | 12.19482 | 35903 ft | 472 kts | 336° |
| 2026-04-17 09:08 | -6.25450 | 12.16986 | 35895 ft | 472 kts | 336° |
| 2026-04-17 09:08 | -6.19368 | 12.14472 | 35896 ft | 472 kts | 336° |
| 2026-04-17 09:09 | -6.13293 | 12.11960 | 35896 ft | 472 kts | 336° |
| 2026-04-17 09:09 | -6.07217 | 12.09450 | 35893 ft | 472 kts | 336° |
| 2026-04-17 09:10 | -5.98097 | 12.05682 | 35893 ft | 472 kts | 336° |
| 2026-04-17 09:10 | -5.92019 | 12.03172 | 35883 ft | 472 kts | 336° |
| 2026-04-17 09:11 | -5.85971 | 12.00675 | 35890 ft | 473 kts | 336° |
| 2026-04-17 09:11 | -5.79890 | 11.98165 | 35880 ft | 473 kts | 336° |
| 2026-04-17 09:12 | -5.73794 | 11.95649 | 35881 ft | 474 kts | 336° |
| 2026-04-17 09:12 | -5.67683 | 11.93128 | 35880 ft | 474 kts | 336° |
| 2026-04-17 09:13 | -5.61572 | 11.90607 | 35877 ft | 474 kts | 336° |
| 2026-04-17 09:13 | -5.55466 | 11.88089 | 35871 ft | 475 kts | 336° |
| 2026-04-17 09:14 | -5.49389 | 11.85583 | 35879 ft | 475 kts | 336° |
| 2026-04-17 09:14 | -5.43265 | 11.83059 | 35877 ft | 476 kts | 336° |
| 2026-04-17 09:15 | -5.37119 | 11.80526 | 35877 ft | 476 kts | 336° |
| 2026-04-17 09:15 | -5.30974 | 11.77994 | 35877 ft | 477 kts | 336° |
| 2026-04-17 09:16 | -5.24837 | 11.75465 | 35874 ft | 477 kts | 336° |
| 2026-04-17 09:16 | -5.18735 | 11.72951 | 35872 ft | 477 kts | 336° |
| 2026-04-17 09:17 | -5.12528 | 11.70582 | 35865 ft | 479 kts | 344° |
| 2026-04-17 09:17 | -5.05920 | 11.69714 | 35873 ft | 480 kts | 355° |
| 2026-04-17 09:18 | -4.99241 | 11.69336 | 35862 ft | 480 kts | 356° |
| 2026-04-17 09:18 | -4.92572 | 11.68931 | 35866 ft | 480 kts | 355° |
| 2026-04-17 09:19 | -4.85935 | 11.68484 | 35875 ft | 480 kts | 355° |
| 2026-04-17 09:19 | -4.79251 | 11.68019 | 35876 ft | 480 kts | 355° |
| 2026-04-17 09:20 | -4.72588 | 11.67555 | 35871 ft | 480 kts | 355° |
| 2026-04-17 09:20 | -4.65952 | 11.67096 | 35873 ft | 480 kts | 355° |
| 2026-04-17 09:21 | -4.59294 | 11.66637 | 35869 ft | 480 kts | 355° |
| 2026-04-17 09:21 | -4.52630 | 11.66176 | 35866 ft | 480 kts | 355° |
| 2026-04-17 09:22 | -4.45950 | 11.65715 | 35867 ft | 480 kts | 355° |
| 2026-04-17 09:22 | -4.39287 | 11.65255 | 35868 ft | 480 kts | 355° |
| 2026-04-17 09:23 | -4.32661 | 11.64798 | 35863 ft | 480 kts | 355° |
| 2026-04-17 09:23 | -4.25991 | 11.64341 | 35866 ft | 480 kts | 355° |
| 2026-04-17 09:24 | -4.19329 | 11.63888 | 35869 ft | 479 kts | 355° |
| 2026-04-17 09:24 | -4.12671 | 11.63435 | 35875 ft | 479 kts | 355° |
| 2026-04-17 09:25 | -4.07143 | 11.63058 | 35872 ft | 479 kts | 355° |
| 2026-04-17 09:25 | -4.00486 | 11.62604 | 35882 ft | 479 kts | 355° |
| 2026-04-17 09:26 | -3.93838 | 11.62151 | 35878 ft | 478 kts | 355° |
| 2026-04-17 09:26 | -3.87203 | 11.61699 | 35881 ft | 478 kts | 355° |
| 2026-04-17 09:27 | -3.80556 | 11.61246 | 35877 ft | 478 kts | 355° |
| 2026-04-17 09:27 | -3.73919 | 11.60794 | 35882 ft | 478 kts | 355° |
| 2026-04-17 09:28 | -3.67275 | 11.60341 | 35883 ft | 478 kts | 355° |
| 2026-04-17 09:28 | -3.60738 | 11.59288 | 35894 ft | 476 kts | 345° |
| 2026-04-17 09:29 | -3.54312 | 11.57650 | 35886 ft | 476 kts | 345° |
| 2026-04-17 09:29 | -3.47881 | 11.56005 | 35891 ft | 476 kts | 345° |
| 2026-04-17 09:30 | -3.41484 | 11.54421 | 35896 ft | 476 kts | 345° |
| 2026-04-17 09:30 | -3.35056 | 11.52856 | 35902 ft | 475 kts | 345° |
| 2026-04-17 09:31 | -3.28627 | 11.51295 | 35895 ft | 475 kts | 345° |
| 2026-04-17 09:31 | -3.22199 | 11.49733 | 35896 ft | 474 kts | 345° |
| 2026-04-17 09:32 | -3.15783 | 11.48171 | 35894 ft | 474 kts | 345° |
| 2026-04-17 09:32 | -3.09371 | 11.46611 | 35899 ft | 474 kts | 345° |
| 2026-04-17 09:33 | -3.02967 | 11.45053 | 35903 ft | 474 kts | 345° |
| 2026-04-17 09:33 | -2.96562 | 11.43495 | 35899 ft | 473 kts | 346° |
| 2026-04-17 09:34 | -2.90161 | 11.41938 | 35899 ft | 473 kts | 346° |
| 2026-04-17 09:34 | -2.83799 | 11.40390 | 35900 ft | 473 kts | 346° |
| 2026-04-17 09:35 | -2.77400 | 11.38834 | 35899 ft | 473 kts | 346° |
| 2026-04-17 09:35 | -2.71003 | 11.37279 | 35900 ft | 473 kts | 346° |
| 2026-04-17 09:36 | -2.64604 | 11.35723 | 35897 ft | 473 kts | 346° |
| 2026-04-17 09:36 | -2.58206 | 11.34167 | 35893 ft | 473 kts | 346° |
| 2026-04-17 09:37 | -2.51800 | 11.32611 | 35897 ft | 473 kts | 346° |
| 2026-04-17 09:37 | -2.45432 | 11.31066 | 35897 ft | 474 kts | 346° |
| 2026-04-17 09:38 | -2.39018 | 11.29509 | 35887 ft | 474 kts | 345° |
| 2026-04-17 09:38 | -2.32591 | 11.27949 | 35891 ft | 475 kts | 345° |
| 2026-04-17 09:39 | -2.26161 | 11.26387 | 35893 ft | 476 kts | 345° |
| 2026-04-17 09:39 | -2.19719 | 11.24824 | 35893 ft | 476 kts | 346° |
| 2026-04-17 09:40 | -2.13276 | 11.23260 | 35895 ft | 477 kts | 346° |
| 2026-04-17 09:40 | -2.06824 | 11.21694 | 35894 ft | 477 kts | 346° |
| 2026-04-17 09:41 | -2.00370 | 11.20127 | 35895 ft | 477 kts | 346° |
| 2026-04-17 09:41 | -1.93957 | 11.18571 | 35894 ft | 477 kts | 346° |
| 2026-04-17 09:42 | -1.87502 | 11.17005 | 35897 ft | 477 kts | 346° |
| 2026-04-17 09:42 | -1.81042 | 11.15437 | 35899 ft | 476 kts | 346° |
| 2026-04-17 09:43 | -1.74592 | 11.13872 | 35899 ft | 476 kts | 346° |
| 2026-04-17 09:43 | -1.68153 | 11.12309 | 35900 ft | 475 kts | 346° |
| 2026-04-17 09:44 | -1.61734 | 11.10749 | 35907 ft | 475 kts | 346° |
| 2026-04-17 09:44 | -1.55312 | 11.09186 | 35904 ft | 474 kts | 346° |
| 2026-04-17 09:45 | -1.48903 | 11.07627 | 35912 ft | 474 kts | 346° |
| 2026-04-17 09:45 | -1.42534 | 11.06078 | 35913 ft | 474 kts | 346° |
| 2026-04-17 09:46 | -1.36122 | 11.04519 | 35912 ft | 474 kts | 346° |
| 2026-04-17 09:46 | -1.29707 | 11.02959 | 35907 ft | 474 kts | 346° |
| 2026-04-17 09:47 | -1.23287 | 11.01398 | 35901 ft | 475 kts | 346° |
| 2026-04-17 09:47 | -1.16861 | 10.99835 | 35899 ft | 475 kts | 346° |
| 2026-04-17 09:48 | -1.10431 | 10.98272 | 35907 ft | 475 kts | 346° |
| 2026-04-17 09:48 | -1.04003 | 10.96708 | 35903 ft | 476 kts | 346° |
| 2026-04-17 09:49 | -0.97575 | 10.95146 | 35903 ft | 476 kts | 346° |
| 2026-04-17 09:49 | -0.91136 | 10.93580 | 35905 ft | 476 kts | 346° |
| 2026-04-17 09:50 | -0.84746 | 10.92027 | 35906 ft | 475 kts | 346° |
| 2026-04-17 09:50 | -0.78316 | 10.90463 | 35904 ft | 475 kts | 346° |
| 2026-04-17 09:51 | -0.71888 | 10.88900 | 35914 ft | 476 kts | 346° |
| 2026-04-17 09:51 | -0.65452 | 10.87341 | 35907 ft | 476 kts | 346° |
| 2026-04-17 09:52 | -0.59010 | 10.85781 | 35904 ft | 475 kts | 346° |
| 2026-04-17 09:52 | -0.52581 | 10.84224 | 35897 ft | 476 kts | 346° |
| 2026-04-17 09:53 | -0.46144 | 10.82664 | 35899 ft | 476 kts | 346° |
| 2026-04-17 09:53 | -0.39758 | 10.81116 | 35897 ft | 476 kts | 346° |
| 2026-04-17 09:54 | -0.33318 | 10.79556 | 35896 ft | 476 kts | 346° |
| 2026-04-17 09:54 | -0.26880 | 10.77996 | 35893 ft | 475 kts | 346° |
| 2026-04-17 09:55 | -0.20439 | 10.76435 | 35892 ft | 476 kts | 346° |
| 2026-04-17 09:55 | -0.14012 | 10.74878 | 35894 ft | 476 kts | 346° |
| 2026-04-17 09:56 | -0.07608 | 10.73326 | 35897 ft | 476 kts | 346° |
| 2026-04-17 09:56 | -0.01165 | 10.71764 | 35894 ft | 476 kts | 346° |
| 2026-04-17 09:57 | 0.05270 | 10.70197 | 35889 ft | 476 kts | 346° |
| 2026-04-17 09:57 | 0.11703 | 10.68630 | 35889 ft | 476 kts | 346° |
| 2026-04-17 09:58 | 0.18142 | 10.67061 | 35891 ft | 476 kts | 346° |
| 2026-04-17 09:58 | 0.24578 | 10.65494 | 35893 ft | 476 kts | 346° |
| 2026-04-17 09:59 | 0.31009 | 10.63928 | 35899 ft | 476 kts | 346° |
| 2026-04-17 09:59 | 0.37451 | 10.62359 | 35901 ft | 476 kts | 346° |
| 2026-04-17 10:00 | 0.43875 | 10.60795 | 35904 ft | 475 kts | 346° |
| 2026-04-17 10:00 | 0.50304 | 10.59229 | 35910 ft | 475 kts | 346° |
| 2026-04-17 10:01 | 0.56723 | 10.57666 | 35905 ft | 474 kts | 346° |
| 2026-04-17 10:01 | 0.63137 | 10.56104 | 35906 ft | 474 kts | 346° |
| 2026-04-17 10:02 | 0.69549 | 10.54542 | 35914 ft | 474 kts | 346° |
| 2026-04-17 10:02 | 0.75967 | 10.52979 | 35917 ft | 475 kts | 346° |
| 2026-04-17 10:03 | 0.82348 | 10.51424 | 35912 ft | 475 kts | 346° |
| 2026-04-17 10:03 | 0.88779 | 10.49857 | 35916 ft | 476 kts | 346° |
| 2026-04-17 10:04 | 0.95218 | 10.48294 | 35914 ft | 476 kts | 346° |
| 2026-04-17 10:04 | 1.01670 | 10.46731 | 35915 ft | 477 kts | 346° |
| 2026-04-17 10:05 | 1.08127 | 10.45166 | 35916 ft | 477 kts | 346° |
| 2026-04-17 10:05 | 1.14595 | 10.43597 | 35916 ft | 478 kts | 346° |
| 2026-04-17 10:06 | 1.21057 | 10.42029 | 35906 ft | 478 kts | 346° |
| 2026-04-17 10:06 | 1.27534 | 10.40458 | 35906 ft | 478 kts | 346° |
| 2026-04-17 10:07 | 1.34003 | 10.38888 | 35910 ft | 478 kts | 346° |
| 2026-04-17 10:07 | 1.40429 | 10.37329 | 35915 ft | 478 kts | 346° |
| 2026-04-17 10:08 | 1.46938 | 10.35749 | 35913 ft | 478 kts | 346° |
| 2026-04-17 10:08 | 1.53357 | 10.34192 | 35917 ft | 478 kts | 346° |
| 2026-04-17 10:09 | 1.58763 | 10.32880 | 35913 ft | 478 kts | 346° |
| 2026-04-17 10:09 | 1.65227 | 10.31311 | 35916 ft | 478 kts | 346° |
| 2026-04-17 10:10 | 1.72732 | 10.29489 | 35911 ft | 477 kts | 346° |
| 2026-04-17 10:11 | 1.81474 | 10.29107 | 35918 ft | 476 kts | 17° |
| 2026-04-17 10:11 | 1.84502 | 10.30414 | 35909 ft | 474 kts | 32° |
| 2026-04-17 10:11 | 1.87221 | 10.32196 | 35924 ft | 474 kts | 35° |
| 2026-04-17 10:12 | 1.92659 | 10.35930 | 35910 ft | 475 kts | 35° |
| 2026-04-17 10:12 | 1.98121 | 10.39640 | 35904 ft | 475 kts | 34° |
| 2026-04-17 10:13 | 2.03628 | 10.43315 | 35911 ft | 476 kts | 34° |
| 2026-04-17 10:13 | 2.09153 | 10.46977 | 35914 ft | 476 kts | 34° |
| 2026-04-17 10:14 | 2.14687 | 10.50646 | 35915 ft | 477 kts | 34° |
| 2026-04-17 10:14 | 2.20216 | 10.54315 | 35910 ft | 477 kts | 34° |
| 2026-04-17 10:15 | 2.25723 | 10.57971 | 35920 ft | 478 kts | 34° |
| 2026-04-17 10:15 | 2.31257 | 10.61646 | 35919 ft | 478 kts | 34° |
| 2026-04-17 10:16 | 2.36799 | 10.65327 | 35927 ft | 478 kts | 34° |
| 2026-04-17 10:16 | 2.42347 | 10.69011 | 35923 ft | 478 kts | 34° |
| 2026-04-17 10:17 | 2.47803 | 10.72635 | 35900 ft | 456 kts | 34° |
| 2026-04-17 10:17 | 2.50405 | 10.74362 | 35904 ft | 441 kts | 34° |
| 2026-04-17 10:17 | 2.52919 | 10.76029 | 35904 ft | 427 kts | 34° |
| 2026-04-17 10:17 | 2.55357 | 10.77645 | 35903 ft | 414 kts | 34° |
| 2026-04-17 10:18 | 2.57719 | 10.79208 | 35914 ft | 403 kts | 34° |
| 2026-04-17 10:18 | 2.62475 | 10.82356 | 35945 ft | 418 kts | 34° |
| 2026-04-17 10:19 | 2.67413 | 10.85622 | 35936 ft | 429 kts | 34° |
| 2026-04-17 10:19 | 2.72395 | 10.88910 | 35936 ft | 430 kts | 34° |
| 2026-04-17 10:20 | 2.77333 | 10.92166 | 35919 ft | 419 kts | 34° |
| 2026-04-17 10:20 | 2.82179 | 10.95359 | 35943 ft | 420 kts | 34° |
| 2026-04-17 10:21 | 2.87079 | 10.98588 | 35943 ft | 423 kts | 34° |
| 2026-04-17 10:21 | 2.92003 | 11.01834 | 35942 ft | 425 kts | 34° |
| 2026-04-17 10:22 | 2.96958 | 11.05101 | 35940 ft | 426 kts | 34° |
| 2026-04-17 10:22 | 3.01908 | 11.08365 | 35946 ft | 425 kts | 34° |
| 2026-04-17 10:23 | 3.06808 | 11.11597 | 35931 ft | 423 kts | 34° |
| 2026-04-17 10:23 | 3.11705 | 11.14829 | 35936 ft | 419 kts | 34° |
| 2026-04-17 10:24 | 3.16574 | 11.18042 | 35668 ft | 423 kts | 34° |
| 2026-04-17 10:24 | 3.19062 | 11.19682 | 34590 ft | 432 kts | 34° |
| 2026-04-17 10:24 | 3.21585 | 11.21337 | 33607 ft | 435 kts | 33° |
| 2026-04-17 10:24 | 3.24359 | 11.22614 | 32148 ft | 449 kts | 14° |
| 2026-04-17 10:25 | 3.27500 | 11.22833 | 30735 ft | 461 kts | 353° |
| 2026-04-17 10:25 | 3.30556 | 11.21861 | 29751 ft | 462 kts | 330° |
| 2026-04-17 10:25 | 3.33154 | 11.20011 | 29099 ft | 457 kts | 319° |
| 2026-04-17 10:25 | 3.35302 | 11.17675 | 28415 ft | 455 kts | 305° |
| 2026-04-17 10:26 | 3.36955 | 11.15002 | 27806 ft | 459 kts | 300° |
| 2026-04-17 10:26 | 3.38545 | 11.12183 | 27153 ft | 469 kts | 299° |
| 2026-04-17 10:26 | 3.40114 | 11.09327 | 26475 ft | 466 kts | 299° |
| 2026-04-17 10:26 | 3.41667 | 11.06501 | 25801 ft | 462 kts | 299° |
| 2026-04-17 10:27 | 3.43226 | 11.03691 | 25134 ft | 458 kts | 300° |
| 2026-04-17 10:27 | 3.44783 | 11.00919 | 24473 ft | 455 kts | 300° |
| 2026-04-17 10:27 | 3.46340 | 10.98171 | 23824 ft | 452 kts | 300° |
| 2026-04-17 10:27 | 3.47900 | 10.95434 | 23079 ft | 450 kts | 300° |
| 2026-04-17 10:28 | 3.49448 | 10.92724 | 22384 ft | 446 kts | 301° |
| 2026-04-17 10:28 | 3.50980 | 10.90044 | 21730 ft | 441 kts | 301° |
| 2026-04-17 10:28 | 3.52475 | 10.87429 | 21094 ft | 436 kts | 301° |
| 2026-04-17 10:28 | 3.53975 | 10.84805 | 20433 ft | 433 kts | 301° |
| 2026-04-17 10:29 | 3.55464 | 10.82199 | 19798 ft | 429 kts | 300° |
| 2026-04-17 10:29 | 3.56939 | 10.79615 | 19161 ft | 426 kts | 301° |
| 2026-04-17 10:29 | 3.58404 | 10.77049 | 18530 ft | 423 kts | 301° |
| 2026-04-17 10:29 | 3.59860 | 10.74498 | 17836 ft | 420 kts | 301° |
| 2026-04-17 10:30 | 3.61305 | 10.71965 | 17160 ft | 417 kts | 301° |
| 2026-04-17 10:30 | 3.62732 | 10.69466 | 16536 ft | 412 kts | 301° |
| 2026-04-17 10:30 | 3.64146 | 10.66986 | 15901 ft | 408 kts | 301° |
| 2026-04-17 10:30 | 3.65550 | 10.64527 | 15287 ft | 405 kts | 301° |
| 2026-04-17 10:31 | 3.66943 | 10.62084 | 14674 ft | 402 kts | 301° |
| 2026-04-17 10:31 | 3.68327 | 10.59658 | 14064 ft | 400 kts | 301° |
| 2026-04-17 10:31 | 3.69702 | 10.57248 | 13408 ft | 397 kts | 301° |
| 2026-04-17 10:31 | 3.71071 | 10.54849 | 12757 ft | 395 kts | 301° |
| 2026-04-17 10:32 | 3.72430 | 10.52467 | 12133 ft | 392 kts | 301° |
| 2026-04-17 10:32 | 3.73760 | 10.50134 | 11544 ft | 389 kts | 301° |
| 2026-04-17 10:32 | 3.75096 | 10.47791 | 10929 ft | 386 kts | 301° |
| 2026-04-17 10:32 | 3.76410 | 10.45486 | 10699 ft | 373 kts | 301° |
| 2026-04-17 10:33 | 3.77675 | 10.43265 | 10499 ft | 361 kts | 302° |
| 2026-04-17 10:33 | 3.78898 | 10.41118 | 10334 ft | 348 kts | 302° |
| 2026-04-17 10:33 | 3.80079 | 10.39046 | 10181 ft | 337 kts | 302° |
| 2026-04-17 10:33 | 3.81222 | 10.37040 | 10029 ft | 327 kts | 302° |
| 2026-04-17 10:34 | 3.82335 | 10.35088 | 9856 ft | 318 kts | 302° |
| 2026-04-17 10:34 | 3.83407 | 10.33206 | 9841 ft | 302 kts | 302° |
| 2026-04-17 10:34 | 3.84450 | 10.31378 | 9241 ft | 302 kts | 302° |
| 2026-04-17 10:34 | 3.85484 | 10.29567 | 8854 ft | 295 kts | 302° |
| 2026-04-17 10:35 | 3.86480 | 10.27819 | 8545 ft | 291 kts | 302° |
| 2026-04-17 10:35 | 3.87479 | 10.26067 | 8226 ft | 290 kts | 302° |
| 2026-04-17 10:35 | 3.88482 | 10.24309 | 7902 ft | 290 kts | 301° |
| 2026-04-17 10:35 | 3.89480 | 10.22559 | 7588 ft | 289 kts | 301° |
| 2026-04-17 10:36 | 3.90477 | 10.20808 | 7260 ft | 289 kts | 301° |
| 2026-04-17 10:36 | 3.91473 | 10.19060 | 6938 ft | 289 kts | 301° |
| 2026-04-17 10:36 | 3.92472 | 10.17307 | 6615 ft | 290 kts | 301° |
| 2026-04-17 10:36 | 3.93370 | 10.15498 | 6267 ft | 291 kts | 287° |
| 2026-04-17 10:37 | 3.93719 | 10.13501 | 5912 ft | 291 kts | 277° |
| 2026-04-17 10:37 | 3.93975 | 10.11495 | 5584 ft | 290 kts | 277° |
| 2026-04-17 10:37 | 3.94239 | 10.09505 | 5267 ft | 285 kts | 278° |
| 2026-04-17 10:37 | 3.94511 | 10.07564 | 4971 ft | 277 kts | 278° |
| 2026-04-17 10:38 | 3.94785 | 10.05674 | 4674 ft | 271 kts | 278° |
| 2026-04-17 10:38 | 3.95052 | 10.03853 | 4382 ft | 265 kts | 278° |
| 2026-04-17 10:38 | 3.95317 | 10.02052 | 4248 ft | 258 kts | 278° |
| 2026-04-17 10:38 | 3.95284 | 10.00264 | 4101 ft | 251 kts | 253° |
| 2026-04-17 10:39 | 3.94639 | 9.98698 | 4024 ft | 243 kts | 245° |
| 2026-04-17 10:39 | 3.93957 | 9.97177 | 3910 ft | 236 kts | 245° |
| 2026-04-17 10:39 | 3.93299 | 9.95694 | 3809 ft | 229 kts | 246° |
| 2026-04-17 10:39 | 3.92662 | 9.94251 | 3717 ft | 222 kts | 246° |
| 2026-04-17 10:40 | 3.92053 | 9.92868 | 3687 ft | 211 kts | 246° |
| 2026-04-17 10:40 | 3.91486 | 9.91570 | 3581 ft | 203 kts | 248° |
| 2026-04-17 10:40 | 3.91383 | 9.90232 | 3510 ft | 188 kts | 290° |
| 2026-04-17 10:40 | 3.91997 | 9.89032 | 3333 ft | 197 kts | 297° |
| 2026-04-17 10:41 | 3.92608 | 9.87834 | 3120 ft | 188 kts | 296° |
| 2026-04-17 10:41 | 3.93165 | 9.86725 | 2884 ft | 167 kts | 296° |
| 2026-04-17 10:41 | 3.93655 | 9.85752 | 2666 ft | 156 kts | 296° |
| 2026-04-17 10:41 | 3.94146 | 9.84774 | 2467 ft | 158 kts | 296° |
| 2026-04-17 10:42 | 3.94638 | 9.83797 | 2269 ft | 157 kts | 296° |
| 2026-04-17 10:42 | 3.95131 | 9.82818 | 2070 ft | 158 kts | 295° |
| 2026-04-17 10:42 | 3.95625 | 9.81838 | 1867 ft | 155 kts | 296° |
| 2026-04-17 10:42 | 3.96088 | 9.80918 | 1669 ft | 145 kts | 296° |
| 2026-04-17 10:43 | 3.96544 | 9.80011 | 1496 ft | 144 kts | 296° |
| 2026-04-17 10:43 | 3.96993 | 9.79120 | 1310 ft | 144 kts | 295° |
| 2026-04-17 10:43 | 3.97442 | 9.78229 | 1129 ft | 144 kts | 295° |
| 2026-04-17 10:43 | 3.97893 | 9.77330 | 953 ft | 141 kts | 295° |
| 2026-04-17 10:44 | 3.98328 | 9.76468 | 786 ft | 140 kts | 295° |
| 2026-04-17 10:44 | 3.98775 | 9.75577 | 626 ft | 144 kts | 295° |
| 2026-04-17 10:44 | 3.99224 | 9.74684 | 403 ft | 142 kts | 297° |
| 2026-04-17 10:44 | 3.99672 | 9.73809 | 214 ft | 140 kts | 297° |
| 2026-04-17 10:45 | 4.00107 | 9.72952 | 47 ft | 135 kts | 297° |
| 2026-04-17 10:45 | 4.00504 | 9.72170 | 36 ft | 114 kts | 296° |
| 2026-04-17 10:45 | 4.00766 | 9.71649 | 40 ft | 45 kts | 296° |
| 2026-04-17 10:45 | 4.00861 | 9.71460 | 41 ft | 14 kts | 296° |
| 2026-04-17 10:46 | 4.00913 | 9.71358 | 42 ft | 14 kts | 303° |
| 2026-04-17 10:46 | 4.00998 | 9.71349 | 42 ft | 13 kts | 26° |
| 2026-04-17 10:46 | 4.01049 | 9.71417 | 41 ft | 14 kts | 97° |
| 2026-04-17 10:46 | 4.01014 | 9.71520 | 42 ft | 17 kts | 95° |
| 2026-04-17 10:47 | 4.01094 | 9.71594 | 42 ft | 16 kts | 26° |
| 2026-04-17 10:47 | 4.01136 | 9.71672 | 41 ft | 14 kts | 127° |
| 2026-04-17 10:47 | 4.01129 | 9.71681 | 41 ft | 0 kts | 128° |